Time;durP1;ratioP1;P1;durP2;ratioP2;P2;SDS_P1;SDS_P2;PMS_P1;PMS_P2;Temp;Humidity;BMP_temperature;BMP_pressure;BME280_temperature;BME280_humidity;BME280_pressure;Samples;Min_cycle;Max_cycle;Signal;HPM_P1;HPM_P2
2022/01/15 00:01:33;;;;;;;9.00;6.03;;;;;;;;;;4528560;28;20545;-59
2022/01/15 00:03:43;;;;;;;9.03;6.23;;;;;;;;;;4527897;28;20033;-59
2022/01/15 00:05:54;;;;;;;9.37;6.00;;;;;;;;;;4527905;28;20120;-59
2022/01/15 00:08:05;;;;;;;8.93;6.00;;;;;;;;;;4529679;28;20080;-59
2022/01/15 00:10:18;;;;;;;8.10;5.55;;;;;;;;;;4527847;28;20096;-59
2022/01/15 00:12:35;;;;;;;8.88;6.13;;;;;;;;;;4527726;28;20556;-59
2022/01/15 00:14:46;;;;;;;9.85;5.93;;;;;;;;;;4527877;28;20505;-59
2022/01/15 00:17:04;;;;;;;8.27;5.40;;;;;;;;;;4530123;28;20025;-59
2022/01/15 00:19:17;;;;;;;7.80;5.40;;;;;;;;;;4527786;28;20050;-59
2022/01/15 00:21:27;;;;;;;9.60;5.80;;;;;;;;;;4528007;28;21636;-59
2022/01/15 00:23:38;;;;;;;8.57;5.37;;;;;;;;;;4528080;28;20033;-60
2022/01/15 00:25:48;;;;;;;8.60;5.63;;;;;;;;;;4528444;28;20106;-59
2022/01/15 00:28:00;;;;;;;9.37;5.80;;;;;;;;;;4528295;28;20120;-59
2022/01/15 00:30:12;;;;;;;8.38;5.75;;;;;;;;;;4529972;28;20040;-59
2022/01/15 00:32:23;;;;;;;8.85;6.22;;;;;;;;;;4527329;28;20032;-59
2022/01/15 00:34:33;;;;;;;9.13;6.20;;;;;;;;;;4525893;28;20075;-60
2022/01/15 00:36:44;;;;;;;8.93;5.63;;;;;;;;;;4518246;28;20088;-59
2022/01/15 00:38:54;;;;;;;8.53;5.57;;;;;;;;;;4513525;28;21165;-59
2022/01/15 00:41:05;;;;;;;8.70;5.77;;;;;;;;;;4527896;28;20171;-59
2022/01/15 00:43:15;;;;;;;8.73;5.63;;;;;;;;;;4528275;28;20042;-59
2022/01/15 00:45:29;;;;;;;8.70;5.40;;;;;;;;;;4529424;28;20359;-59
2022/01/15 00:47:40;;;;;;;9.45;6.00;;;;;;;;;;4530176;28;20175;-59
2022/01/15 00:49:51;;;;;;;8.73;5.82;;;;;;;;;;4528269;28;20107;-59
2022/01/15 00:52:02;;;;;;;8.70;5.72;;;;;;;;;;4525317;28;20147;-59
2022/01/15 00:54:13;;;;;;;7.93;5.40;;;;;;;;;;4528175;28;20091;-59
2022/01/15 00:56:23;;;;;;;10.33;6.13;;;;;;;;;;4526682;28;20455;-59
2022/01/15 00:58:33;;;;;;;8.23;5.70;;;;;;;;;;4525723;28;20124;-59
2022/01/15 01:00:45;;;;;;;8.57;6.13;;;;;;;;;;4525362;28;20048;-59
2022/01/15 01:02:56;;;;;;;10.10;5.95;;;;;;;;;;4525082;28;20088;-59
2022/01/15 01:05:07;;;;;;;8.88;6.10;;;;;;;;;;4529344;28;20039;-59
2022/01/15 01:07:17;;;;;;;8.93;6.40;;;;;;;;;;4527241;28;20044;-59
2022/01/15 01:09:42;;;;;;;9.43;6.10;;;;;;;;;;4528660;28;20272;-59
2022/01/15 01:11:57;;;;;;;9.32;5.85;;;;;;;;;;4527806;28;20262;-59
2022/01/15 01:23:45;;;;;;;8.95;6.10;;;;;;;;;;4525257;28;20079;-59
2022/01/15 01:26:44;;;;;;;10.03;6.80;;;;;;;;;;4528278;28;20111;-59
2022/01/15 01:28:35;;;;;;;8.90;6.00;;;;;;;;;;4526207;28;20049;-59
2022/01/15 01:31:00;;;;;;;8.55;6.00;;;;;;;;;;4518737;28;20062;-59
2022/01/15 01:35:45;;;;;;;8.75;5.85;;;;;;;;;;4528424;28;20076;-59
2022/01/15 01:37:58;;;;;;;8.85;6.18;;;;;;;;;;4528104;28;20038;-59
2022/01/15 01:42:37;;;;;;;9.60;6.35;;;;;;;;;;4528651;28;20486;-59
2022/01/15 01:45:16;;;;;;;;;;;;;;;;;;4526844;28;20760;-59
2022/01/15 01:47:39;;;;;;;8.38;5.57;;;;;;;;;;4527645;28;19916;-60
2022/01/15 01:49:50;;;;;;;10.52;6.30;;;;;;;;;;4535891;28;20087;-59
2022/01/15 01:52:00;;;;;;;9.90;6.37;;;;;;;;;;4526487;28;20045;-59
2022/01/15 01:54:13;;;;;;;9.40;6.07;;;;;;;;;;4529848;28;28880;-59
2022/01/15 01:56:23;;;;;;;10.15;6.35;;;;;;;;;;4527039;28;20045;-59
2022/01/15 01:58:33;;;;;;;9.27;6.00;;;;;;;;;;4526922;28;20044;-59
2022/01/15 02:00:44;;;;;;;8.57;5.77;;;;;;;;;;4527812;28;20043;-60
2022/01/15 02:02:55;;;;;;;8.00;5.70;;;;;;;;;;4527385;28;31561;-59
2022/01/15 02:05:06;;;;;;;8.90;5.80;;;;;;;;;;4525347;28;20055;-59
2022/01/15 02:07:16;;;;;;;8.55;5.55;;;;;;;;;;4527979;28;20371;-59
2022/01/15 02:09:27;;;;;;;7.83;5.27;;;;;;;;;;4527280;28;20048;-59
2022/01/15 02:11:39;;;;;;;9.00;5.70;;;;;;;;;;4526291;28;20043;-59
2022/01/15 02:13:50;;;;;;;7.45;5.35;;;;;;;;;;4513708;28;20038;-59
2022/01/15 02:16:00;;;;;;;7.70;5.37;;;;;;;;;;4527227;28;20304;-59
2022/01/15 02:18:11;;;;;;;7.83;5.37;;;;;;;;;;4533095;28;20028;-59
2022/01/15 02:20:48;;;;;;;7.75;5.25;;;;;;;;;;4526624;28;20096;-59
2022/01/15 02:25:26;;;;;;;9.13;6.00;;;;;;;;;;4527895;28;20310;-59
2022/01/15 02:27:36;;;;;;;7.60;5.10;;;;;;;;;;4527338;28;20041;-59
2022/01/15 02:29:46;;;;;;;8.50;5.70;;;;;;;;;;4525479;28;20029;-59
2022/01/15 02:31:57;;;;;;;8.83;5.70;;;;;;;;;;4526891;28;20030;-59
2022/01/15 02:34:07;;;;;;;8.27;5.40;;;;;;;;;;4523647;28;20046;-59
2022/01/15 02:36:28;;;;;;;8.60;5.90;;;;;;;;;;4525112;28;20180;-59
2022/01/15 02:38:39;;;;;;;7.28;4.85;;;;;;;;;;4522899;28;20175;-59
2022/01/15 02:40:50;;;;;;;8.50;5.55;;;;;;;;;;4510611;28;20096;-59
2022/01/15 02:43:06;;;;;;;8.25;5.55;;;;;;;;;;4525387;28;20029;-59
2022/01/15 02:45:22;;;;;;;8.38;5.45;;;;;;;;;;4524629;28;20945;-59
2022/01/15 02:50:02;;;;;;;8.73;5.80;;;;;;;;;;4524717;28;20084;-59
2022/01/15 02:52:12;;;;;;;8.87;6.00;;;;;;;;;;4520791;28;20045;-59
2022/01/15 02:54:23;;;;;;;8.67;5.77;;;;;;;;;;4522391;28;21212;-59
2022/01/15 02:56:35;;;;;;;8.57;5.83;;;;;;;;;;4525068;28;20048;-59
2022/01/15 02:58:46;;;;;;;9.20;6.07;;;;;;;;;;4522423;28;20041;-59
2022/01/15 03:00:56;;;;;;;8.87;6.10;;;;;;;;;;4523718;28;20073;-59
2022/01/15 03:03:07;;;;;;;9.30;5.90;;;;;;;;;;4525613;28;20045;-59
2022/01/15 03:05:17;;;;;;;8.37;5.80;;;;;;;;;;4511348;28;20060;-59
2022/01/15 03:07:28;;;;;;;9.13;6.50;;;;;;;;;;4523934;28;20043;-59
2022/01/15 03:09:40;;;;;;;9.40;6.10;;;;;;;;;;4526342;28;20033;-59
2022/01/15 03:11:51;;;;;;;7.55;5.55;;;;;;;;;;4523644;28;20120;-59
2022/01/15 03:14:01;;;;;;;8.30;5.63;;;;;;;;;;4524521;28;20037;-59
2022/01/15 03:16:14;;;;;;;8.87;5.87;;;;;;;;;;4529813;28;20477;-59
2022/01/15 03:18:25;;;;;;;9.07;5.88;;;;;;;;;;4530288;28;20033;-59
2022/01/15 03:20:35;;;;;;;8.03;5.70;;;;;;;;;;4527963;28;20037;-59
2022/01/15 03:22:46;;;;;;;9.17;6.17;;;;;;;;;;4530173;28;20029;-59
2022/01/15 03:24:57;;;;;;;9.67;6.20;;;;;;;;;;4531129;28;20091;-59
2022/01/15 03:27:07;;;;;;;8.73;6.30;;;;;;;;;;4529112;28;33752;-59
2022/01/15 03:29:18;;;;;;;9.43;6.33;;;;;;;;;;4529063;28;20090;-59
2022/01/15 03:31:29;;;;;;;;;;;;;;;;;;4532076;28;20025;-59
2022/01/15 03:33:40;;;;;;;8.38;5.63;;;;;;;;;;4531233;28;19920;-59
2022/01/15 03:35:50;;;;;;;9.33;6.20;;;;;;;;;;4534883;28;20044;-59
2022/01/15 03:38:01;;;;;;;10.37;6.37;;;;;;;;;;4530040;28;20060;-59
2022/01/15 03:40:15;;;;;;;8.40;5.93;;;;;;;;;;4531314;28;20762;-59
2022/01/15 03:42:25;;;;;;;8.43;5.78;;;;;;;;;;4529574;28;20037;-59
2022/01/15 03:44:35;;;;;;;9.03;6.10;;;;;;;;;;4528455;28;20048;-59
2022/01/15 03:46:46;;;;;;;8.60;5.97;;;;;;;;;;4528981;28;20045;-59
2022/01/15 03:48:56;;;;;;;8.37;5.80;;;;;;;;;;4538050;28;20497;-59
2022/01/15 03:51:07;;;;;;;8.57;5.80;;;;;;;;;;4529134;28;20029;-59
2022/01/15 03:53:17;;;;;;;8.60;6.13;;;;;;;;;;4529068;28;20350;-59
2022/01/15 03:55:28;;;;;;;9.13;6.27;;;;;;;;;;4529734;28;20032;-59
2022/01/15 03:57:39;;;;;;;8.70;5.70;;;;;;;;;;4529839;28;20493;-59
2022/01/15 03:59:49;;;;;;;8.32;5.72;;;;;;;;;;4528999;28;20076;-59
2022/01/15 04:02:00;;;;;;;8.67;5.97;;;;;;;;;;4532156;28;20144;-59
2022/01/15 04:04:11;;;;;;;8.13;5.50;;;;;;;;;;4528546;28;20037;-59
2022/01/15 04:06:21;;;;;;;8.10;5.30;;;;;;;;;;4530517;28;20120;-59
2022/01/15 04:08:31;;;;;;;8.47;5.77;;;;;;;;;;4526072;28;37169;-59
2022/01/15 04:10:42;;;;;;;8.07;5.70;;;;;;;;;;4529393;28;20034;-59
2022/01/15 04:12:52;;;;;;;9.30;5.87;;;;;;;;;;4527301;28;20080;-59
2022/01/15 04:15:04;;;;;;;8.67;5.37;;;;;;;;;;4525427;28;20034;-59
2022/01/15 04:17:14;;;;;;;7.75;5.40;;;;;;;;;;4526977;28;20033;-59
2022/01/15 04:19:27;;;;;;;8.77;5.83;;;;;;;;;;4527556;28;20044;-60
2022/01/15 04:21:38;;;;;;;8.45;5.78;;;;;;;;;;4524278;28;20033;-59
2022/01/15 04:23:48;;;;;;;7.90;5.10;;;;;;;;;;4526184;28;20022;-59
2022/01/15 04:25:58;;;;;;;7.57;4.93;;;;;;;;;;4525514;28;20128;-59
2022/01/15 04:28:11;;;;;;;8.73;5.60;;;;;;;;;;4526435;28;28673;-59
2022/01/15 04:30:22;;;;;;;7.85;5.57;;;;;;;;;;4534199;28;20025;-59
2022/01/15 04:32:33;;;;;;;8.80;5.70;;;;;;;;;;4525979;28;20630;-59
2022/01/15 04:34:43;;;;;;;9.03;6.20;;;;;;;;;;4529427;28;20700;-59
2022/01/15 04:37:00;;;;;;;8.67;5.80;;;;;;;;;;4511718;28;20045;-59
2022/01/15 04:39:11;;;;;;;7.00;5.07;;;;;;;;;;4527433;28;20234;-59
2022/01/15 04:41:22;;;;;;;8.00;5.40;;;;;;;;;;4528050;28;20594;-57
2022/01/15 04:43:33;;;;;;;8.27;5.67;;;;;;;;;;4527378;28;20038;-57
2022/01/15 04:45:43;;;;;;;8.43;5.57;;;;;;;;;;4528123;28;20036;-57
2022/01/15 04:47:54;;;;;;;9.30;6.03;;;;;;;;;;4526280;28;20153;-57
2022/01/15 04:50:07;;;;;;;8.40;5.37;;;;;;;;;;4528438;28;21985;-57
2022/01/15 04:52:17;;;;;;;8.48;5.60;;;;;;;;;;4512704;28;21042;-57
2022/01/15 04:54:28;;;;;;;9.63;6.13;;;;;;;;;;4523364;28;20043;-57
2022/01/15 04:56:38;;;;;;;7.93;5.37;;;;;;;;;;4508181;28;22322;-57
2022/01/15 04:58:49;;;;;;;8.60;5.70;;;;;;;;;;4530112;28;20034;-57
2022/01/15 05:01:00;;;;;;;9.03;5.57;;;;;;;;;;4526735;28;20132;-57
2022/01/15 05:03:10;;;;;;;8.67;5.67;;;;;;;;;;4526100;28;20284;-57
2022/01/15 05:05:20;;;;;;;7.90;5.10;;;;;;;;;;4527152;28;20087;-57
2022/01/15 05:07:31;;;;;;;7.90;5.57;;;;;;;;;;4526733;28;20071;-57
2022/01/15 05:09:41;;;;;;;8.00;5.40;;;;;;;;;;4527169;28;20135;-57
2022/01/15 05:12:22;;;;;;;8.03;5.53;;;;;;;;;;4529323;28;20037;-57
2022/01/15 05:14:25;;;;;;;7.55;5.40;;;;;;;;;;4527413;28;20120;-57
2022/01/15 05:16:36;;;;;;;9.60;6.03;;;;;;;;;;4525733;28;20477;-57
2022/01/15 05:18:46;;;;;;;7.63;5.45;;;;;;;;;;4526655;28;20030;-57
2022/01/15 05:20:57;;;;;;;9.43;6.13;;;;;;;;;;4525756;28;20045;-57
2022/01/15 05:23:07;;;;;;;8.53;5.83;;;;;;;;;;4525392;28;20025;-57
2022/01/15 05:25:18;;;;;;;8.27;5.40;;;;;;;;;;4528006;28;20461;-57
2022/01/15 05:27:28;;;;;;;8.63;5.43;;;;;;;;;;4517183;28;20121;-57
2022/01/15 05:29:39;;;;;;;8.47;5.80;;;;;;;;;;4524967;28;20041;-57
2022/01/15 05:31:49;;;;;;;8.37;5.53;;;;;;;;;;4527380;28;20077;-57
2022/01/15 05:34:00;;;;;;;8.23;5.60;;;;;;;;;;4523207;28;20088;-57
2022/01/15 05:36:10;;;;;;;7.33;4.67;;;;;;;;;;4525928;28;20037;-57
2022/01/15 05:38:21;;;;;;;8.13;5.43;;;;;;;;;;4523545;28;20033;-57
2022/01/15 05:40:31;;;;;;;8.67;5.90;;;;;;;;;;4524046;28;22739;-57
2022/01/15 05:42:41;;;;;;;9.97;6.50;;;;;;;;;;4524943;28;20414;-57
2022/01/15 05:44:52;;;;;;;8.53;5.57;;;;;;;;;;4524005;28;20106;-57
2022/01/15 05:47:03;;;;;;;8.93;6.03;;;;;;;;;;4525970;28;20033;-57
2022/01/15 05:49:13;;;;;;;8.43;5.60;;;;;;;;;;4522611;28;20785;-57
2022/01/15 05:51:29;;;;;;;8.93;6.20;;;;;;;;;;4526390;28;20265;-57
2022/01/15 05:53:39;;;;;;;8.43;6.00;;;;;;;;;;4526821;28;20026;-57
2022/01/15 05:55:50;;;;;;;9.20;6.00;;;;;;;;;;4524602;28;20045;-57
2022/01/15 05:58:00;;;;;;;8.77;5.60;;;;;;;;;;4526587;28;20033;-57
2022/01/15 06:00:11;;;;;;;8.70;5.90;;;;;;;;;;4523802;28;20045;-57
2022/01/15 06:02:24;;;;;;;9.05;5.68;;;;;;;;;;4524325;28;20092;-57
2022/01/15 06:04:35;;;;;;;9.23;5.97;;;;;;;;;;4523042;28;20038;-57
2022/01/15 06:06:45;;;;;;;10.33;6.40;;;;;;;;;;4523690;28;28131;-57
2022/01/15 06:08:56;;;;;;;9.33;6.73;;;;;;;;;;4524234;28;20444;-57
2022/01/15 06:11:07;;;;;;;9.15;5.93;;;;;;;;;;4524996;28;21221;-57
2022/01/15 06:13:17;;;;;;;8.40;6.00;;;;;;;;;;4524079;28;20031;-57
2022/01/15 06:15:27;;;;;;;8.67;5.83;;;;;;;;;;4523624;28;20044;-57
2022/01/15 06:17:38;;;;;;;9.33;6.70;;;;;;;;;;4521370;28;20438;-57
2022/01/15 06:19:48;;;;;;;10.37;6.97;;;;;;;;;;4524328;28;20052;-57
2022/01/15 06:21:59;;;;;;;10.47;6.70;;;;;;;;;;4524948;28;20029;-57
2022/01/15 06:24:09;;;;;;;11.13;7.17;;;;;;;;;;4526441;28;42393;-57
2022/01/15 06:26:20;;;;;;;9.57;5.70;;;;;;;;;;4527776;28;27665;-57
2022/01/15 06:28:30;;;;;;;7.97;5.17;;;;;;;;;;4526422;28;22349;-57
2022/01/15 06:30:41;;;;;;;6.33;4.20;;;;;;;;;;4533290;28;20069;-57
2022/01/15 06:32:51;;;;;;;10.70;7.50;;;;;;;;;;4525584;28;20041;-57
2022/01/15 06:35:06;;;;;;;8.27;5.77;;;;;;;;;;4522088;28;20038;-58
2022/01/15 06:37:18;;;;;;;7.07;4.57;;;;;;;;;;4522310;28;20835;-58
2022/01/15 06:39:29;;;;;;;10.23;7.28;;;;;;;;;;4525458;28;20048;-60
2022/01/15 06:41:39;;;;;;;10.53;7.17;;;;;;;;;;4525419;28;22557;-58
2022/01/15 06:43:50;;;;;;;10.13;6.93;;;;;;;;;;4525095;28;20490;-58
2022/01/15 06:46:00;;;;;;;10.50;7.50;;;;;;;;;;4523792;28;21186;-58
2022/01/15 06:48:10;;;;;;;10.47;6.97;;;;;;;;;;4525482;28;20031;-58
2022/01/15 06:50:23;;;;;;;12.53;8.13;;;;;;;;;;4523123;28;20030;-58
2022/01/15 06:52:35;;;;;;;10.20;7.40;;;;;;;;;;4523886;28;20877;-58
2022/01/15 06:54:46;;;;;;;11.30;7.57;;;;;;;;;;4525364;28;20029;-59
2022/01/15 06:56:56;;;;;;;9.40;6.70;;;;;;;;;;4531614;28;22681;-59
2022/01/15 06:59:06;;;;;;;10.20;6.77;;;;;;;;;;4524461;28;20053;-58
2022/01/15 07:01:17;;;;;;;10.37;7.00;;;;;;;;;;4532312;28;20044;-59
2022/01/15 07:03:27;;;;;;;11.57;7.57;;;;;;;;;;4524552;28;20258;-58
2022/01/15 07:05:38;;;;;;;10.20;7.20;;;;;;;;;;4524789;28;20033;-58
2022/01/15 07:07:48;;;;;;;11.37;7.37;;;;;;;;;;4525140;28;20038;-59
2022/01/15 07:09:59;;;;;;;11.77;8.02;;;;;;;;;;4523245;28;20036;-59
2022/01/15 07:12:10;;;;;;;11.23;7.50;;;;;;;;;;4492809;28;20043;-58
2022/01/15 07:14:20;;;;;;;9.97;6.73;;;;;;;;;;4524035;28;20041;-58
2022/01/15 07:16:31;;;;;;;10.67;7.10;;;;;;;;;;4525382;28;20036;-58
2022/01/15 07:18:41;;;;;;;11.47;7.37;;;;;;;;;;4533275;28;20037;-58
2022/01/15 07:20:52;;;;;;;10.77;7.80;;;;;;;;;;4524684;28;20063;-58
2022/01/15 07:23:02;;;;;;;10.13;6.97;;;;;;;;;;4523538;28;20068;-58
2022/01/15 07:25:13;;;;;;;10.67;7.40;;;;;;;;;;4521089;28;34204;-58
2022/01/15 07:27:23;;;;;;;11.13;7.73;;;;;;;;;;4523713;28;20244;-58
2022/01/15 07:29:37;;;;;;;10.97;7.47;;;;;;;;;;4531761;28;21105;-58
2022/01/15 07:31:48;;;;;;;10.30;7.10;;;;;;;;;;4523255;28;20041;-58
2022/01/15 07:33:58;;;;;;;11.50;7.57;;;;;;;;;;4524988;28;20029;-58
2022/01/15 07:36:08;;;;;;;9.90;7.00;;;;;;;;;;4523037;28;20021;-58
2022/01/15 07:38:20;;;;;;;11.13;7.33;;;;;;;;;;4521818;28;27523;-58
2022/01/15 07:40:30;;;;;;;11.52;7.80;;;;;;;;;;4523313;28;20742;-59
2022/01/15 07:42:41;;;;;;;10.90;6.83;;;;;;;;;;4521357;28;20041;-59
2022/01/15 07:44:51;;;;;;;11.37;7.30;;;;;;;;;;4521334;28;34122;-59
2022/01/15 07:47:02;;;;;;;12.23;7.23;;;;;;;;;;4523493;28;20057;-59
2022/01/15 07:49:12;;;;;;;11.23;7.43;;;;;;;;;;4523923;28;20664;-59
2022/01/15 07:51:23;;;;;;;10.87;7.30;;;;;;;;;;4523491;28;20508;-59
2022/01/15 07:53:34;;;;;;;10.10;6.40;;;;;;;;;;4522351;28;20048;-59
2022/01/15 07:55:44;;;;;;;10.93;6.73;;;;;;;;;;4531127;28;20024;-58
2022/01/15 07:57:54;;;;;;;9.83;6.77;;;;;;;;;;4524047;28;20042;-58
2022/01/15 08:00:06;;;;;;;10.27;6.77;;;;;;;;;;4503625;28;20052;-58
2022/01/15 08:02:23;;;;;;;10.85;7.53;;;;;;;;;;4524696;28;20033;-58
2022/01/15 08:04:33;;;;;;;11.70;7.97;;;;;;;;;;4527242;28;20041;-58
2022/01/15 08:06:43;;;;;;;11.47;7.67;;;;;;;;;;4523774;28;20533;-58
2022/01/15 08:08:54;;;;;;;11.20;7.73;;;;;;;;;;4524484;28;20361;-58
2022/01/15 08:11:05;;;;;;;12.27;7.60;;;;;;;;;;4540715;28;20037;-58
2022/01/15 08:13:16;;;;;;;12.03;7.87;;;;;;;;;;4524389;28;20033;-58
2022/01/15 08:15:27;;;;;;;11.05;7.53;;;;;;;;;;4523314;28;20030;-58
2022/01/15 08:17:38;;;;;;;9.40;5.93;;;;;;;;;;4526945;28;20571;-58
2022/01/15 08:19:48;;;;;;;8.93;5.80;;;;;;;;;;4525476;28;20513;-58
2022/01/15 08:21:59;;;;;;;8.97;5.67;;;;;;;;;;4525258;28;20038;-58
2022/01/15 08:24:10;;;;;;;7.13;4.60;;;;;;;;;;4534019;28;20060;-58
2022/01/15 08:26:20;;;;;;;6.95;4.55;;;;;;;;;;4525232;28;20041;-58
2022/01/15 08:28:31;;;;;;;7.30;4.67;;;;;;;;;;4525509;28;20025;-59
2022/01/15 08:30:41;;;;;;;8.47;4.97;;;;;;;;;;4524053;28;20808;-58
2022/01/15 08:32:52;;;;;;;7.73;4.20;;;;;;;;;;4523591;28;20033;-58
2022/01/15 08:35:05;;;;;;;4.47;2.73;;;;;;;;;;4525512;28;20064;-58
2022/01/15 08:37:16;;;;;;;2.42;1.80;;;;;;;;;;4524916;28;20042;-61
2022/01/15 08:39:26;;;;;;;2.07;1.30;;;;;;;;;;4533081;28;27120;-60
2022/01/15 08:41:37;;;;;;;1.47;1.07;;;;;;;;;;4524841;28;20037;-60
2022/01/15 08:43:47;;;;;;;1.23;1.00;;;;;;;;;;4524182;28;20128;-58
2022/01/15 08:45:58;;;;;;;0.90;0.90;;;;;;;;;;4525262;28;20046;-58
2022/01/15 08:48:08;;;;;;;1.03;0.90;;;;;;;;;;4525261;28;20033;-59
2022/01/15 08:50:19;;;;;;;0.80;0.80;;;;;;;;;;4521892;28;20072;-59
2022/01/15 08:52:29;;;;;;;1.53;1.00;;;;;;;;;;4526159;28;20045;-61
2022/01/15 08:54:40;;;;;;;1.13;0.90;;;;;;;;;;4526350;28;20498;-58
2022/01/15 08:56:50;;;;;;;0.83;0.70;;;;;;;;;;4524996;28;20128;-59
2022/01/15 08:59:03;;;;;;;0.90;0.83;;;;;;;;;;4524650;28;20108;-59
2022/01/15 09:01:13;;;;;;;0.90;0.80;;;;;;;;;;4526680;28;20072;-61
2022/01/15 09:03:24;;;;;;;1.80;0.90;;;;;;;;;;4526842;28;20075;-58
2022/01/15 09:05:35;;;;;;;1.30;1.00;;;;;;;;;;4525199;28;20039;-58
2022/01/15 09:07:46;;;;;;;1.20;1.00;;;;;;;;;;4506150;28;20037;-58
2022/01/15 09:09:56;;;;;;;1.10;0.97;;;;;;;;;;4526666;28;20025;-58
2022/01/15 09:12:07;;;;;;;1.80;1.40;;;;;;;;;;4523957;28;20601;-59
2022/01/15 09:14:18;;;;;;;1.50;1.27;;;;;;;;;;4525205;28;20025;-59
2022/01/15 09:16:28;;;;;;;1.50;1.00;;;;;;;;;;4525748;28;20045;-59
2022/01/15 09:18:39;;;;;;;0.97;0.80;;;;;;;;;;4527219;28;20110;-58
2022/01/15 09:20:49;;;;;;;0.83;0.83;;;;;;;;;;4526771;28;20749;-58
2022/01/15 09:22:59;;;;;;;1.30;0.90;;;;;;;;;;4523991;28;20037;-58
2022/01/15 09:25:10;;;;;;;1.20;0.90;;;;;;;;;;4510598;28;20253;-58
2022/01/15 09:32:20;;;;;;;0.82;0.80;;;;;;;;;;4523164;28;20047;-58
2022/01/15 09:34:32;;;;;;;1.10;0.90;;;;;;;;;;4525365;28;20039;-58
2022/01/15 09:36:42;;;;;;;1.00;0.88;;;;;;;;;;4522788;28;20040;-58
2022/01/15 09:38:53;;;;;;;1.20;1.00;;;;;;;;;;4525194;28;20044;-59
2022/01/15 09:41:03;;;;;;;0.90;0.90;;;;;;;;;;4524350;28;20136;-58
2022/01/15 09:43:15;;;;;;;1.17;1.07;;;;;;;;;;4525074;28;20049;-59
2022/01/15 09:45:25;;;;;;;;;;;;;;;;;;4526881;28;20128;-59
2022/01/15 09:47:36;;;;;;;1.80;1.10;;;;;;;;;;4524166;28;19934;-58
2022/01/15 09:49:47;;;;;;;1.47;0.93;;;;;;;;;;4525307;28;20500;-59
2022/01/15 09:51:58;;;;;;;0.95;0.80;;;;;;;;;;4525951;28;20499;-58
2022/01/15 09:54:08;;;;;;;1.10;1.00;;;;;;;;;;4525731;28;20068;-58
2022/01/15 09:56:18;;;;;;;0.70;0.70;;;;;;;;;;4523827;28;20371;-59
2022/01/15 09:58:29;;;;;;;0.97;0.87;;;;;;;;;;4525031;28;24982;-59
2022/01/15 10:00:39;;;;;;;1.10;1.00;;;;;;;;;;4522777;28;20053;-58
2022/01/15 10:02:51;;;;;;;1.13;0.93;;;;;;;;;;4524211;28;20071;-59
2022/01/15 10:05:02;;;;;;;0.98;0.88;;;;;;;;;;4523536;28;20041;-58
2022/01/15 10:07:17;;;;;;;0.93;0.83;;;;;;;;;;4524732;28;20037;-58
2022/01/15 10:09:28;;;;;;;1.58;1.00;;;;;;;;;;4532600;28;20242;-58
2022/01/15 10:11:58;;;;;;;1.03;0.80;;;;;;;;;;4524212;28;20037;-59
2022/01/15 10:14:35;;;;;;;3.80;1.00;;;;;;;;;;4523820;28;20041;-58
2022/01/15 10:16:46;;;;;;;1.27;0.82;;;;;;;;;;4523506;28;20071;-58
2022/01/15 10:18:56;;;;;;;1.23;1.00;;;;;;;;;;4525076;28;26858;-58
2022/01/15 10:21:26;;;;;;;1.07;0.80;;;;;;;;;;4524292;28;20048;-58
2022/01/15 10:23:49;;;;;;;0.80;0.80;;;;;;;;;;4538630;28;20677;-58
2022/01/15 10:26:20;;;;;;;1.17;0.80;;;;;;;;;;4508457;28;20041;-58
2022/01/15 10:28:52;;;;;;;0.77;0.70;;;;;;;;;;4523835;28;20041;-58
2022/01/15 10:31:23;;;;;;;0.90;0.80;;;;;;;;;;4523899;28;20028;-58
2022/01/15 10:33:34;;;;;;;0.70;0.70;;;;;;;;;;4527507;28;20596;-58
2022/01/15 10:35:45;;;;;;;0.97;0.87;;;;;;;;;;4523355;28;20381;-59
2022/01/15 10:38:00;;;;;;;;;;;;;;;;;;4525577;28;20802;-58
2022/01/15 10:40:12;;;;;;;1.00;0.75;;;;;;;;;;4524959;28;19928;-58
2022/01/15 10:42:23;;;;;;;0.80;0.70;;;;;;;;;;4522548;28;20045;-58
2022/01/15 10:44:36;;;;;;;1.85;1.00;;;;;;;;;;4507138;28;20034;-58
2022/01/15 10:46:46;;;;;;;0.98;0.90;;;;;;;;;;4523004;28;20132;-58
2022/01/15 10:48:56;;;;;;;0.80;0.80;;;;;;;;;;4520776;28;20402;-58
2022/01/15 10:51:10;;;;;;;1.20;0.90;;;;;;;;;;4521783;28;20280;-59
2022/01/15 10:53:39;;;;;;;1.30;1.05;;;;;;;;;;4519779;28;20599;-58
2022/01/15 10:55:51;;;;;;;0.70;0.60;;;;;;;;;;4522125;28;20057;-58
2022/01/15 10:58:05;;;;;;;0.80;0.80;;;;;;;;;;4509864;28;20038;-58
2022/01/15 11:00:21;;;;;;;0.70;0.70;;;;;;;;;;4524010;28;20048;-59
2022/01/15 11:02:32;;;;;;;0.95;0.80;;;;;;;;;;4523499;28;20855;-59
2022/01/15 11:04:43;;;;;;;0.73;0.73;;;;;;;;;;4523587;28;20022;-59
2022/01/15 11:06:53;;;;;;;1.37;0.80;;;;;;;;;;4508568;28;20042;-59
2022/01/15 11:09:04;;;;;;;1.17;0.90;;;;;;;;;;4523572;28;20044;-59
2022/01/15 11:11:16;;;;;;;1.13;1.00;;;;;;;;;;4522948;28;20041;-59
2022/01/15 11:13:29;;;;;;;1.17;1.05;;;;;;;;;;4521257;28;20092;-59
2022/01/15 11:15:43;;;;;;;1.52;1.20;;;;;;;;;;4520850;28;20119;-59
2022/01/15 11:17:54;;;;;;;1.10;1.00;;;;;;;;;;4526190;28;20132;-59
2022/01/15 11:20:05;;;;;;;0.80;0.80;;;;;;;;;;4524196;28;20052;-59
2022/01/15 11:22:19;;;;;;;1.00;0.90;;;;;;;;;;4521344;28;20038;-59
2022/01/15 11:24:30;;;;;;;1.17;1.08;;;;;;;;;;4521663;28;20025;-59
2022/01/15 11:26:40;;;;;;;1.03;0.93;;;;;;;;;;4523628;28;20037;-59
2022/01/15 11:28:53;;;;;;;0.80;0.70;;;;;;;;;;4524504;28;20065;-59
2022/01/15 11:31:15;;;;;;;1.45;1.30;;;;;;;;;;4521561;28;20038;-59
2022/01/15 11:33:29;;;;;;;1.33;1.05;;;;;;;;;;4525147;28;20659;-59
2022/01/15 11:35:44;;;;;;;1.65;1.23;;;;;;;;;;4521967;28;20648;-59
2022/01/15 11:37:56;;;;;;;2.05;1.20;;;;;;;;;;4527579;28;20123;-58
2022/01/15 11:40:45;;;;;;;1.00;0.82;;;;;;;;;;4526546;28;20692;-59
2022/01/15 11:42:55;;;;;;;1.10;1.00;;;;;;;;;;4494730;28;20731;-58
2022/01/15 11:45:06;;;;;;;1.20;1.10;;;;;;;;;;4528582;28;20072;-59
2022/01/15 11:47:20;;;;;;;1.30;1.00;;;;;;;;;;4526464;28;20331;-58
2022/01/15 11:49:33;;;;;;;1.27;1.05;;;;;;;;;;4528256;28;20591;-58
2022/01/15 11:51:44;;;;;;;0.85;0.85;;;;;;;;;;4526044;28;20148;-58
2022/01/15 11:54:00;;;;;;;0.80;0.80;;;;;;;;;;4524252;28;23067;-59
2022/01/15 11:56:22;;;;;;;1.17;0.80;;;;;;;;;;4523478;28;20132;-59
2022/01/15 11:58:32;;;;;;;;;;;;;;;;;;4527223;28;20038;-58
2022/01/15 12:00:43;;;;;;;1.00;0.90;;;;;;;;;;4527577;28;19921;-59
2022/01/15 12:02:57;;;;;;;0.95;0.85;;;;;;;;;;4526887;28;20026;-59
2022/01/15 12:05:17;;;;;;;1.10;0.90;;;;;;;;;;4527670;28;20035;-58
2022/01/15 12:07:27;;;;;;;1.08;0.90;;;;;;;;;;4528070;28;20076;-59
2022/01/15 12:09:39;;;;;;;1.23;0.93;;;;;;;;;;4526713;28;21393;-58
2022/01/15 12:11:52;;;;;;;0.80;0.80;;;;;;;;;;4526363;28;20038;-58
2022/01/15 12:14:02;;;;;;;1.20;1.02;;;;;;;;;;4526299;28;20031;-58
2022/01/15 12:16:34;;;;;;;1.40;1.20;;;;;;;;;;4526261;28;23767;-58
2022/01/15 12:18:46;;;;;;;1.33;0.93;;;;;;;;;;4529359;28;20044;-58
2022/01/15 12:20:59;;;;;;;0.85;0.80;;;;;;;;;;4527988;28;21112;-58
2022/01/15 12:23:18;;;;;;;1.20;1.02;;;;;;;;;;4529292;28;20119;-59
2022/01/15 12:25:36;;;;;;;1.05;0.90;;;;;;;;;;4530501;28;20040;-58
2022/01/15 12:27:55;;;;;;;1.20;0.98;;;;;;;;;;4537232;28;20697;-59
2022/01/15 12:30:17;;;;;;;1.38;0.98;;;;;;;;;;4526220;28;20106;-58
2022/01/15 12:32:30;;;;;;;1.23;0.93;;;;;;;;;;4529465;28;20114;-59
2022/01/15 12:34:41;;;;;;;1.25;0.80;;;;;;;;;;4528634;28;20644;-59
2022/01/15 12:36:51;;;;;;;1.33;0.90;;;;;;;;;;4528064;28;20088;-58
2022/01/15 12:39:02;;;;;;;0.80;0.80;;;;;;;;;;4530106;28;20037;-59
2022/01/15 12:41:17;;;;;;;1.50;0.83;;;;;;;;;;4528026;28;20130;-59
2022/01/15 12:43:30;;;;;;;1.20;0.82;;;;;;;;;;4528339;28;20548;-59
2022/01/15 12:45:41;;;;;;;1.48;1.00;;;;;;;;;;4528896;28;20579;-59
2022/01/15 12:47:51;;;;;;;1.57;1.00;;;;;;;;;;4529517;28;20033;-58
2022/01/15 12:50:02;;;;;;;1.20;1.10;;;;;;;;;;4527174;28;20373;-59
2022/01/15 12:52:25;;;;;;;1.97;1.17;;;;;;;;;;4529625;28;20045;-59
2022/01/15 12:54:35;;;;;;;1.13;0.75;;;;;;;;;;4531206;28;20604;-59
2022/01/15 12:56:46;;;;;;;0.93;0.70;;;;;;;;;;4515243;28;20033;-58
2022/01/15 12:58:57;;;;;;;1.53;0.97;;;;;;;;;;4530083;28;20052;-58
2022/01/15 13:01:08;;;;;;;1.02;0.93;;;;;;;;;;4528792;28;20033;-59
2022/01/15 13:03:22;;;;;;;0.82;0.70;;;;;;;;;;4537433;28;20041;-58
2022/01/15 13:05:44;;;;;;;1.42;1.02;;;;;;;;;;4528568;28;20110;-58
2022/01/15 13:07:58;;;;;;;0.80;0.80;;;;;;;;;;4528352;28;20115;-58
2022/01/15 13:10:50;;;;;;;1.25;1.10;;;;;;;;;;4528712;28;20029;-59
2022/01/15 13:13:02;;;;;;;1.35;1.05;;;;;;;;;;4529350;28;20047;-59
2022/01/15 13:15:23;;;;;;;1.45;1.15;;;;;;;;;;4528768;28;20043;-59
2022/01/15 13:17:34;;;;;;;1.17;0.85;;;;;;;;;;4529646;28;20030;-58
2022/01/15 13:19:45;;;;;;;2.03;1.10;;;;;;;;;;4529281;28;20033;-59
2022/01/15 13:21:55;;;;;;;1.23;1.00;;;;;;;;;;4520422;28;20091;-59
2022/01/15 13:24:10;;;;;;;1.53;1.03;;;;;;;;;;4528935;28;20052;-59
2022/01/15 13:26:31;;;;;;;1.65;1.10;;;;;;;;;;4528111;28;20036;-58
2022/01/15 13:28:42;;;;;;;1.70;1.00;;;;;;;;;;4527421;28;21286;-59
2022/01/15 13:30:52;;;;;;;1.77;1.20;;;;;;;;;;4527852;28;20037;-58
2022/01/15 13:33:05;;;;;;;0.87;0.80;;;;;;;;;;4528154;28;20027;-58
2022/01/15 13:35:16;;;;;;;1.35;1.00;;;;;;;;;;4527571;28;20116;-59
2022/01/15 13:37:26;;;;;;;1.30;1.02;;;;;;;;;;4525731;28;20108;-58
2022/01/15 13:39:38;;;;;;;1.07;0.97;;;;;;;;;;4528597;28;20037;-58